sensor_id;sensor_type;location;lat;lon;timestamp;P1;durP1;ratioP1;P2;durP2;ratioP2
6679;SDS011;3376;42.664;23.346;2023-07-13T00:00:08;8.80;;;5.13;;
6679;SDS011;3376;42.664;23.346;2023-07-13T00:02:35;5.03;;;4.63;;
6679;SDS011;3376;42.664;23.346;2023-07-13T00:05:03;7.60;;;5.77;;
6679;SDS011;3376;42.664;23.346;2023-07-13T00:07:30;5.40;;;5.03;;
6679;SDS011;3376;42.664;23.346;2023-07-13T00:09:59;7.83;;;5.10;;
6679;SDS011;3376;42.664;23.346;2023-07-13T00:12:26;6.67;;;5.20;;
6679;SDS011;3376;42.664;23.346;2023-07-13T00:14:58;7.70;;;5.10;;
6679;SDS011;3376;42.664;23.346;2023-07-13T00:17:26;6.07;;;5.43;;
6679;SDS011;3376;42.664;23.346;2023-07-13T00:19:55;5.13;;;4.80;;
6679;SDS011;3376;42.664;23.346;2023-07-13T00:22:23;7.80;;;5.03;;
6679;SDS011;3376;42.664;23.346;2023-07-13T00:24:51;6.57;;;5.57;;
6679;SDS011;3376;42.664;23.346;2023-07-13T00:27:22;6.10;;;5.50;;
6679;SDS011;3376;42.664;23.346;2023-07-13T00:29:51;5.53;;;5.13;;
6679;SDS011;3376;42.664;23.346;2023-07-13T00:32:18;6.40;;;5.63;;
6679;SDS011;3376;42.664;23.346;2023-07-13T00:34:45;5.40;;;5.10;;
6679;SDS011;3376;42.664;23.346;2023-07-13T00:37:12;5.40;;;5.00;;
6679;SDS011;3376;42.664;23.346;2023-07-13T00:39:39;6.07;;;5.67;;
6679;SDS011;3376;42.664;23.346;2023-07-13T00:42:06;7.83;;;5.30;;
6679;SDS011;3376;42.664;23.346;2023-07-13T00:44:34;5.63;;;5.33;;
6679;SDS011;3376;42.664;23.346;2023-07-13T00:47:01;5.53;;;5.13;;
6679;SDS011;3376;42.664;23.346;2023-07-13T00:49:29;6.50;;;5.60;;
6679;SDS011;3376;42.664;23.346;2023-07-13T00:51:58;12.27;;;5.67;;
6679;SDS011;3376;42.664;23.346;2023-07-13T00:54:29;6.33;;;5.07;;
6679;SDS011;3376;42.664;23.346;2023-07-13T00:57:00;6.23;;;5.13;;
6679;SDS011;3376;42.664;23.346;2023-07-13T00:59:29;5.10;;;4.80;;
6679;SDS011;3376;42.664;23.346;2023-07-13T01:01:59;10.67;;;5.57;;
6679;SDS011;3376;42.664;23.346;2023-07-13T01:04:26;5.73;;;5.43;;
6679;SDS011;3376;42.664;23.346;2023-07-13T01:06:53;6.47;;;5.30;;
6679;SDS011;3376;42.664;23.346;2023-07-13T01:09:20;5.90;;;5.30;;
6679;SDS011;3376;42.664;23.346;2023-07-13T01:11:47;9.60;;;5.27;;
6679;SDS011;3376;42.664;23.346;2023-07-13T01:14:14;5.97;;;5.53;;
6679;SDS011;3376;42.664;23.346;2023-07-13T01:16:43;6.63;;;6.03;;
6679;SDS011;3376;42.664;23.346;2023-07-13T01:19:15;6.13;;;5.53;;
6679;SDS011;3376;42.664;23.346;2023-07-13T01:22:02;5.90;;;5.30;;
6679;SDS011;3376;42.664;23.346;2023-07-13T01:24:29;5.43;;;4.97;;
6679;SDS011;3376;42.664;23.346;2023-07-13T01:26:56;6.23;;;5.53;;
6679;SDS011;3376;42.664;23.346;2023-07-13T01:29:23;6.07;;;5.70;;
6679;SDS011;3376;42.664;23.346;2023-07-13T01:31:50;7.27;;;5.43;;
6679;SDS011;3376;42.664;23.346;2023-07-13T01:34:17;6.20;;;5.57;;
6679;SDS011;3376;42.664;23.346;2023-07-13T01:36:44;8.03;;;7.50;;
6679;SDS011;3376;42.664;23.346;2023-07-13T01:39:12;10.03;;;7.37;;
6679;SDS011;3376;42.664;23.346;2023-07-13T01:41:39;7.37;;;6.63;;
6679;SDS011;3376;42.664;23.346;2023-07-13T01:44:06;11.80;;;6.53;;
6679;SDS011;3376;42.664;23.346;2023-07-13T01:46:33;6.47;;;5.87;;
6679;SDS011;3376;42.664;23.346;2023-07-13T01:49:00;6.67;;;6.17;;
6679;SDS011;3376;42.664;23.346;2023-07-13T01:51:27;6.03;;;5.33;;
6679;SDS011;3376;42.664;23.346;2023-07-13T01:53:54;5.93;;;5.50;;
6679;SDS011;3376;42.664;23.346;2023-07-13T01:56:22;5.40;;;5.10;;
6679;SDS011;3376;42.664;23.346;2023-07-13T01:58:48;6.80;;;5.83;;
6679;SDS011;3376;42.664;23.346;2023-07-13T02:01:15;5.70;;;5.30;;
6679;SDS011;3376;42.664;23.346;2023-07-13T02:03:42;5.73;;;5.23;;
6679;SDS011;3376;42.664;23.346;2023-07-13T02:06:09;6.57;;;5.70;;
6679;SDS011;3376;42.664;23.346;2023-07-13T02:08:36;6.53;;;6.07;;
6679;SDS011;3376;42.664;23.346;2023-07-13T02:11:03;5.37;;;4.93;;
6679;SDS011;3376;42.664;23.346;2023-07-13T02:13:31;6.20;;;5.70;;
6679;SDS011;3376;42.664;23.346;2023-07-13T02:15:58;7.17;;;5.83;;
6679;SDS011;3376;42.664;23.346;2023-07-13T02:18:25;5.90;;;5.40;;
6679;SDS011;3376;42.664;23.346;2023-07-13T02:20:52;6.60;;;5.83;;
6679;SDS011;3376;42.664;23.346;2023-07-13T02:23:19;6.13;;;5.60;;
6679;SDS011;3376;42.664;23.346;2023-07-13T02:25:46;6.43;;;6.03;;
6679;SDS011;3376;42.664;23.346;2023-07-13T02:28:12;6.17;;;5.67;;
6679;SDS011;3376;42.664;23.346;2023-07-13T02:30:40;6.37;;;5.40;;
6679;SDS011;3376;42.664;23.346;2023-07-13T02:33:07;7.00;;;6.03;;
6679;SDS011;3376;42.664;23.346;2023-07-13T02:35:34;7.90;;;5.47;;
6679;SDS011;3376;42.664;23.346;2023-07-13T02:38:01;6.73;;;6.23;;
6679;SDS011;3376;42.664;23.346;2023-07-13T02:40:27;7.63;;;6.67;;
6679;SDS011;3376;42.664;23.346;2023-07-13T02:42:54;6.70;;;6.20;;
6679;SDS011;3376;42.664;23.346;2023-07-13T02:45:21;8.00;;;6.30;;
6679;SDS011;3376;42.664;23.346;2023-07-13T02:47:49;7.67;;;7.07;;
6679;SDS011;3376;42.664;23.346;2023-07-13T02:50:16;5.87;;;5.23;;
6679;SDS011;3376;42.664;23.346;2023-07-13T02:52:43;7.27;;;6.00;;
6679;SDS011;3376;42.664;23.346;2023-07-13T02:55:09;7.03;;;6.47;;
6679;SDS011;3376;42.664;23.346;2023-07-13T02:57:36;6.00;;;5.70;;
6679;SDS011;3376;42.664;23.346;2023-07-13T03:00:03;7.63;;;6.63;;
6679;SDS011;3376;42.664;23.346;2023-07-13T03:02:32;6.70;;;6.30;;
6679;SDS011;3376;42.664;23.346;2023-07-13T03:05:00;8.27;;;6.77;;
6679;SDS011;3376;42.664;23.346;2023-07-13T03:07:27;7.93;;;7.03;;
6679;SDS011;3376;42.664;23.346;2023-07-13T03:09:54;6.13;;;5.83;;
6679;SDS011;3376;42.664;23.346;2023-07-13T03:12:22;6.40;;;5.87;;
6679;SDS011;3376;42.664;23.346;2023-07-13T03:14:49;6.37;;;5.97;;
6679;SDS011;3376;42.664;23.346;2023-07-13T03:17:15;6.40;;;5.80;;
6679;SDS011;3376;42.664;23.346;2023-07-13T03:19:42;11.10;;;6.43;;
6679;SDS011;3376;42.664;23.346;2023-07-13T03:22:10;7.07;;;6.67;;
6679;SDS011;3376;42.664;23.346;2023-07-13T03:24:37;7.10;;;6.50;;
6679;SDS011;3376;42.664;23.346;2023-07-13T03:27:04;6.40;;;5.77;;
6679;SDS011;3376;42.664;23.346;2023-07-13T03:29:32;6.63;;;6.03;;
6679;SDS011;3376;42.664;23.346;2023-07-13T03:31:59;8.30;;;6.10;;
6679;SDS011;3376;42.664;23.346;2023-07-13T03:34:26;8.33;;;6.57;;
6679;SDS011;3376;42.664;23.346;2023-07-13T03:36:53;8.70;;;6.43;;
6679;SDS011;3376;42.664;23.346;2023-07-13T03:39:22;13.20;;;6.57;;
6679;SDS011;3376;42.664;23.346;2023-07-13T03:41:49;7.03;;;6.63;;
6679;SDS011;3376;42.664;23.346;2023-07-13T03:44:15;7.73;;;7.13;;
6679;SDS011;3376;42.664;23.346;2023-07-13T03:46:42;7.60;;;6.90;;
6679;SDS011;3376;42.664;23.346;2023-07-13T03:49:09;7.00;;;6.47;;
6679;SDS011;3376;42.664;23.346;2023-07-13T03:51:36;7.00;;;6.50;;
6679;SDS011;3376;42.664;23.346;2023-07-13T03:54:03;6.93;;;6.43;;
6679;SDS011;3376;42.664;23.346;2023-07-13T03:56:32;7.07;;;6.40;;
6679;SDS011;3376;42.664;23.346;2023-07-13T03:58:58;9.53;;;5.93;;
6679;SDS011;3376;42.664;23.346;2023-07-13T04:01:26;7.20;;;6.67;;
6679;SDS011;3376;42.664;23.346;2023-07-13T04:03:53;7.57;;;6.83;;
6679;SDS011;3376;42.664;23.346;2023-07-13T04:06:21;7.73;;;7.23;;
6679;SDS011;3376;42.664;23.346;2023-07-13T04:08:49;7.77;;;7.07;;
6679;SDS011;3376;42.664;23.346;2023-07-13T04:11:17;9.43;;;7.00;;
6679;SDS011;3376;42.664;23.346;2023-07-13T04:13:45;8.43;;;7.77;;
6679;SDS011;3376;42.664;23.346;2023-07-13T04:16:12;8.30;;;7.70;;
6679;SDS011;3376;42.664;23.346;2023-07-13T04:18:39;12.00;;;6.90;;
6679;SDS011;3376;42.664;23.346;2023-07-13T04:21:07;9.73;;;7.73;;
6679;SDS011;3376;42.664;23.346;2023-07-13T04:23:34;7.70;;;6.87;;
6679;SDS011;3376;42.664;23.346;2023-07-13T04:26:01;7.97;;;6.87;;
6679;SDS011;3376;42.664;23.346;2023-07-13T04:28:29;7.67;;;7.20;;
6679;SDS011;3376;42.664;23.346;2023-07-13T04:30:58;8.23;;;7.47;;
6679;SDS011;3376;42.664;23.346;2023-07-13T04:33:25;7.70;;;7.10;;
6679;SDS011;3376;42.664;23.346;2023-07-13T04:35:53;9.13;;;8.30;;
6679;SDS011;3376;42.664;23.346;2023-07-13T04:38:21;12.57;;;10.77;;
6679;SDS011;3376;42.664;23.346;2023-07-13T04:40:49;11.73;;;9.40;;
6679;SDS011;3376;42.664;23.346;2023-07-13T04:43:16;11.70;;;11.00;;
6679;SDS011;3376;42.664;23.346;2023-07-13T04:45:43;8.73;;;8.10;;
6679;SDS011;3376;42.664;23.346;2023-07-13T04:48:11;8.37;;;7.67;;
6679;SDS011;3376;42.664;23.346;2023-07-13T04:50:38;9.87;;;8.90;;
6679;SDS011;3376;42.664;23.346;2023-07-13T04:53:05;8.77;;;8.23;;
6679;SDS011;3376;42.664;23.346;2023-07-13T04:55:32;8.53;;;7.67;;
6679;SDS011;3376;42.664;23.346;2023-07-13T04:57:58;9.67;;;8.27;;
6679;SDS011;3376;42.664;23.346;2023-07-13T05:00:25;8.30;;;7.90;;
6679;SDS011;3376;42.664;23.346;2023-07-13T05:02:53;9.27;;;8.67;;
6679;SDS011;3376;42.664;23.346;2023-07-13T05:05:22;9.10;;;8.50;;
6679;SDS011;3376;42.664;23.346;2023-07-13T05:07:49;10.40;;;7.93;;
6679;SDS011;3376;42.664;23.346;2023-07-13T05:10:16;9.63;;;8.90;;
6679;SDS011;3376;42.664;23.346;2023-07-13T05:12:43;9.57;;;8.63;;
6679;SDS011;3376;42.664;23.346;2023-07-13T05:15:10;8.97;;;8.27;;
6679;SDS011;3376;42.664;23.346;2023-07-13T05:17:37;9.33;;;8.73;;
6679;SDS011;3376;42.664;23.346;2023-07-13T05:20:05;9.93;;;8.97;;
6679;SDS011;3376;42.664;23.346;2023-07-13T05:22:34;9.87;;;8.80;;
6679;SDS011;3376;42.664;23.346;2023-07-13T05:25:01;9.83;;;8.90;;
6679;SDS011;3376;42.664;23.346;2023-07-13T05:27:28;8.97;;;8.27;;
6679;SDS011;3376;42.664;23.346;2023-07-13T05:29:55;10.30;;;8.67;;
6679;SDS011;3376;42.664;23.346;2023-07-13T05:32:21;10.63;;;9.93;;
6679;SDS011;3376;42.664;23.346;2023-07-13T05:34:48;10.13;;;9.40;;
6679;SDS011;3376;42.664;23.346;2023-07-13T05:37:15;11.10;;;10.03;;
6679;SDS011;3376;42.664;23.346;2023-07-13T05:39:43;9.73;;;9.23;;
6679;SDS011;3376;42.664;23.346;2023-07-13T05:42:10;10.88;;;10.02;;
6679;SDS011;3376;42.664;23.346;2023-07-13T05:44:37;11.73;;;10.57;;
6679;SDS011;3376;42.664;23.346;2023-07-13T05:47:04;12.25;;;11.13;;
6679;SDS011;3376;42.664;23.346;2023-07-13T05:49:31;10.40;;;9.80;;
6679;SDS011;3376;42.664;23.346;2023-07-13T05:51:58;11.55;;;10.70;;
6679;SDS011;3376;42.664;23.346;2023-07-13T05:54:25;10.63;;;9.93;;
6679;SDS011;3376;42.664;23.346;2023-07-13T05:56:54;10.90;;;9.85;;
6679;SDS011;3376;42.664;23.346;2023-07-13T05:59:20;10.65;;;9.77;;
6679;SDS011;3376;42.664;23.346;2023-07-13T06:01:47;10.88;;;10.20;;
6679;SDS011;3376;42.664;23.346;2023-07-13T06:04:14;10.57;;;9.88;;
6679;SDS011;3376;42.664;23.346;2023-07-13T06:06:41;13.15;;;9.68;;
6679;SDS011;3376;42.664;23.346;2023-07-13T06:09:08;9.50;;;9.00;;
6679;SDS011;3376;42.664;23.346;2023-07-13T06:11:35;10.05;;;9.27;;
6679;SDS011;3376;42.664;23.346;2023-07-13T06:14:03;9.52;;;8.85;;
6679;SDS011;3376;42.664;23.346;2023-07-13T06:16:30;9.98;;;9.20;;
6679;SDS011;3376;42.664;23.346;2023-07-13T06:18:56;9.95;;;9.20;;
6679;SDS011;3376;42.664;23.346;2023-07-13T06:21:23;9.27;;;8.50;;
6679;SDS011;3376;42.664;23.346;2023-07-13T06:23:50;8.57;;;7.97;;
6679;SDS011;3376;42.664;23.346;2023-07-13T06:26:17;9.10;;;8.43;;
6679;SDS011;3376;42.664;23.346;2023-07-13T06:28:45;8.50;;;7.68;;
6679;SDS011;3376;42.664;23.346;2023-07-13T06:31:14;9.25;;;8.40;;
6679;SDS011;3376;42.664;23.346;2023-07-13T06:33:42;8.25;;;7.47;;
6679;SDS011;3376;42.664;23.346;2023-07-13T06:36:09;9.20;;;8.52;;
6679;SDS011;3376;42.664;23.346;2023-07-13T06:38:36;8.23;;;7.60;;
6679;SDS011;3376;42.664;23.346;2023-07-13T06:41:03;7.55;;;7.05;;
6679;SDS011;3376;42.664;23.346;2023-07-13T06:43:30;7.38;;;6.70;;
6679;SDS011;3376;42.664;23.346;2023-07-13T06:45:58;7.68;;;7.13;;
6679;SDS011;3376;42.664;23.346;2023-07-13T06:48:26;7.82;;;7.25;;
6679;SDS011;3376;42.664;23.346;2023-07-13T06:50:53;13.63;;;8.02;;
6679;SDS011;3376;42.664;23.346;2023-07-13T06:53:20;7.72;;;7.13;;
6679;SDS011;3376;42.664;23.346;2023-07-13T06:55:47;7.82;;;7.18;;
6679;SDS011;3376;42.664;23.346;2023-07-13T06:58:15;11.80;;;7.53;;
6679;SDS011;3376;42.664;23.346;2023-07-13T07:00:42;10.13;;;7.95;;
6679;SDS011;3376;42.664;23.346;2023-07-13T07:03:09;7.80;;;7.40;;
6679;SDS011;3376;42.664;23.346;2023-07-13T07:05:37;8.18;;;7.65;;
6679;SDS011;3376;42.664;23.346;2023-07-13T07:08:04;8.70;;;7.15;;
6679;SDS011;3376;42.664;23.346;2023-07-13T07:10:31;7.38;;;6.72;;
6679;SDS011;3376;42.664;23.346;2023-07-13T07:12:58;8.20;;;7.45;;
6679;SDS011;3376;42.664;23.346;2023-07-13T07:15:25;14.93;;;8.05;;
6679;SDS011;3376;42.664;23.346;2023-07-13T07:17:52;7.47;;;6.88;;
6679;SDS011;3376;42.664;23.346;2023-07-13T07:20:19;8.15;;;7.53;;
6679;SDS011;3376;42.664;23.346;2023-07-13T07:22:47;8.85;;;8.18;;
6679;SDS011;3376;42.664;23.346;2023-07-13T07:25:14;11.63;;;8.50;;
6679;SDS011;3376;42.664;23.346;2023-07-13T07:27:42;8.30;;;7.57;;
6679;SDS011;3376;42.664;23.346;2023-07-13T07:30:09;7.53;;;6.78;;
6679;SDS011;3376;42.664;23.346;2023-07-13T07:32:36;8.95;;;8.18;;
6679;SDS011;3376;42.664;23.346;2023-07-13T07:35:03;8.30;;;7.80;;
6679;SDS011;3376;42.664;23.346;2023-07-13T07:37:31;10.18;;;7.63;;
6679;SDS011;3376;42.664;23.346;2023-07-13T07:39:59;7.57;;;7.05;;
6679;SDS011;3376;42.664;23.346;2023-07-13T07:42:26;13.13;;;7.28;;
6679;SDS011;3376;42.664;23.346;2023-07-13T07:44:52;8.70;;;7.85;;
6679;SDS011;3376;42.664;23.346;2023-07-13T07:47:19;7.57;;;6.93;;
6679;SDS011;3376;42.664;23.346;2023-07-13T07:49:48;8.30;;;7.55;;
6679;SDS011;3376;42.664;23.346;2023-07-13T07:52:15;9.80;;;8.80;;
6679;SDS011;3376;42.664;23.346;2023-07-13T07:54:41;9.00;;;7.90;;
6679;SDS011;3376;42.664;23.346;2023-07-13T07:57:09;8.40;;;7.68;;
6679;SDS011;3376;42.664;23.346;2023-07-13T07:59:36;11.48;;;8.45;;
6679;SDS011;3376;42.664;23.346;2023-07-13T08:02:04;8.80;;;8.00;;
6679;SDS011;3376;42.664;23.346;2023-07-13T08:04:31;9.35;;;8.32;;
6679;SDS011;3376;42.664;23.346;2023-07-13T08:06:58;8.68;;;7.50;;
6679;SDS011;3376;42.664;23.346;2023-07-13T08:09:25;9.60;;;8.68;;
6679;SDS011;3376;42.664;23.346;2023-07-13T08:11:52;9.77;;;8.98;;
6679;SDS011;3376;42.664;23.346;2023-07-13T08:14:21;12.10;;;8.73;;
6679;SDS011;3376;42.664;23.346;2023-07-13T08:16:47;8.50;;;7.95;;
6679;SDS011;3376;42.664;23.346;2023-07-13T08:19:14;9.77;;;8.57;;
6679;SDS011;3376;42.664;23.346;2023-07-13T08:21:41;9.88;;;8.98;;
6679;SDS011;3376;42.664;23.346;2023-07-13T08:24:08;9.60;;;8.57;;
6679;SDS011;3376;42.664;23.346;2023-07-13T08:26:35;8.48;;;7.78;;
6679;SDS011;3376;42.664;23.346;2023-07-13T08:29:02;8.50;;;7.82;;
6679;SDS011;3376;42.664;23.346;2023-07-13T08:31:30;8.43;;;7.78;;
6679;SDS011;3376;42.664;23.346;2023-07-13T08:33:57;9.98;;;8.02;;
6679;SDS011;3376;42.664;23.346;2023-07-13T08:36:24;9.52;;;7.82;;
6679;SDS011;3376;42.664;23.346;2023-07-13T08:38:51;10.75;;;7.90;;
6679;SDS011;3376;42.664;23.346;2023-07-13T08:41:18;8.27;;;7.82;;
6679;SDS011;3376;42.664;23.346;2023-07-13T08:43:45;8.15;;;7.78;;
6679;SDS011;3376;42.664;23.346;2023-07-13T08:46:16;8.35;;;7.70;;
6679;SDS011;3376;42.664;23.346;2023-07-13T08:48:48;11.85;;;8.20;;
6679;SDS011;3376;42.664;23.346;2023-07-13T08:51:24;8.63;;;8.15;;
6679;SDS011;3376;42.664;23.346;2023-07-13T08:53:57;9.00;;;8.18;;
6679;SDS011;3376;42.664;23.346;2023-07-13T08:56:28;8.23;;;7.72;;
6679;SDS011;3376;42.664;23.346;2023-07-13T08:58:56;8.45;;;7.85;;
6679;SDS011;3376;42.664;23.346;2023-07-13T09:01:28;8.20;;;7.60;;
6679;SDS011;3376;42.664;23.346;2023-07-13T09:04:02;8.80;;;7.97;;
6679;SDS011;3376;42.664;23.346;2023-07-13T09:06:35;8.95;;;7.85;;
6679;SDS011;3376;42.664;23.346;2023-07-13T09:09:16;8.85;;;8.18;;
6679;SDS011;3376;42.664;23.346;2023-07-13T09:11:54;7.65;;;7.18;;
6679;SDS011;3376;42.664;23.346;2023-07-13T09:17:13;8.23;;;7.63;;
6679;SDS011;3376;42.664;23.346;2023-07-13T09:19:44;9.93;;;7.68;;
6679;SDS011;3376;42.664;23.346;2023-07-13T09:22:16;9.43;;;8.07;;
6679;SDS011;3376;42.664;23.346;2023-07-13T09:24:57;9.02;;;7.47;;
6679;SDS011;3376;42.664;23.346;2023-07-13T09:27:29;9.13;;;8.15;;
6679;SDS011;3376;42.664;23.346;2023-07-13T09:30:02;9.27;;;8.77;;
6679;SDS011;3376;42.664;23.346;2023-07-13T09:32:45;8.98;;;8.30;;
6679;SDS011;3376;42.664;23.346;2023-07-13T09:35:18;10.02;;;8.00;;
6679;SDS011;3376;42.664;23.346;2023-07-13T09:37:47;9.30;;;8.35;;
6679;SDS011;3376;42.664;23.346;2023-07-13T09:40:17;11.40;;;8.68;;
6679;SDS011;3376;42.664;23.346;2023-07-13T09:42:51;8.55;;;7.72;;
6679;SDS011;3376;42.664;23.346;2023-07-13T09:45:26;10.00;;;7.85;;
6679;SDS011;3376;42.664;23.346;2023-07-13T09:47:58;10.07;;;9.02;;
6679;SDS011;3376;42.664;23.346;2023-07-13T09:50:27;8.68;;;7.90;;
6679;SDS011;3376;42.664;23.346;2023-07-13T09:52:55;10.05;;;8.73;;
6679;SDS011;3376;42.664;23.346;2023-07-13T09:55:24;10.27;;;9.55;;
6679;SDS011;3376;42.664;23.346;2023-07-13T09:57:53;14.23;;;9.68;;
6679;SDS011;3376;42.664;23.346;2023-07-13T10:00:21;9.15;;;8.30;;
6679;SDS011;3376;42.664;23.346;2023-07-13T10:02:57;9.23;;;8.55;;
6679;SDS011;3376;42.664;23.346;2023-07-13T10:05:38;9.73;;;9.13;;
6679;SDS011;3376;42.664;23.346;2023-07-13T10:08:09;10.07;;;9.15;;
6679;SDS011;3376;42.664;23.346;2023-07-13T10:10:43;11.25;;;10.35;;
6679;SDS011;3376;42.664;23.346;2023-07-13T10:13:21;14.20;;;12.80;;
6679;SDS011;3376;42.664;23.346;2023-07-13T10:15:52;10.73;;;9.48;;
6679;SDS011;3376;42.664;23.346;2023-07-13T10:18:20;7.90;;;7.32;;
6679;SDS011;3376;42.664;23.346;2023-07-13T10:20:49;9.15;;;7.32;;
6679;SDS011;3376;42.664;23.346;2023-07-13T10:23:21;8.55;;;7.82;;
6679;SDS011;3376;42.664;23.346;2023-07-13T10:25:55;6.90;;;6.50;;
6679;SDS011;3376;42.664;23.346;2023-07-13T10:28:25;8.63;;;7.78;;
6679;SDS011;3376;42.664;23.346;2023-07-13T10:30:55;8.52;;;7.85;;
6679;SDS011;3376;42.664;23.346;2023-07-13T10:33:25;8.73;;;8.05;;
6679;SDS011;3376;42.664;23.346;2023-07-13T10:35:54;7.82;;;7.07;;
6679;SDS011;3376;42.664;23.346;2023-07-13T10:38:28;8.20;;;7.50;;
6679;SDS011;3376;42.664;23.346;2023-07-13T10:40:56;8.32;;;7.55;;
6679;SDS011;3376;42.664;23.346;2023-07-13T10:43:25;7.18;;;6.30;;
6679;SDS011;3376;42.664;23.346;2023-07-13T10:45:55;5.97;;;5.50;;
6679;SDS011;3376;42.664;23.346;2023-07-13T10:48:23;6.07;;;5.53;;
6679;SDS011;3376;42.664;23.346;2023-07-13T10:50:51;5.20;;;4.70;;
6679;SDS011;3376;42.664;23.346;2023-07-13T10:53:28;6.13;;;4.63;;
6679;SDS011;3376;42.664;23.346;2023-07-13T10:55:58;5.68;;;4.60;;
6679;SDS011;3376;42.664;23.346;2023-07-13T10:58:31;10.27;;;5.35;;
6679;SDS011;3376;42.664;23.346;2023-07-13T11:01:03;5.43;;;5.00;;
6679;SDS011;3376;42.664;23.346;2023-07-13T11:03:35;4.78;;;4.32;;
6679;SDS011;3376;42.664;23.346;2023-07-13T11:06:07;4.90;;;4.47;;
6679;SDS011;3376;42.664;23.346;2023-07-13T11:08:37;5.50;;;4.65;;
6679;SDS011;3376;42.664;23.346;2023-07-13T11:11:33;4.70;;;4.38;;
6679;SDS011;3376;42.664;23.346;2023-07-13T11:14:03;4.50;;;4.15;;
6679;SDS011;3376;42.664;23.346;2023-07-13T11:16:37;5.30;;;4.80;;
6679;SDS011;3376;42.664;23.346;2023-07-13T11:19:26;5.88;;;4.75;;
6679;SDS011;3376;42.664;23.346;2023-07-13T11:22:22;5.18;;;4.78;;
6679;SDS011;3376;42.664;23.346;2023-07-13T11:24:58;5.05;;;4.32;;
6679;SDS011;3376;42.664;23.346;2023-07-13T11:27:40;5.38;;;4.78;;
6679;SDS011;3376;42.664;23.346;2023-07-13T11:30:17;5.40;;;4.97;;
6679;SDS011;3376;42.664;23.346;2023-07-13T11:32:49;4.30;;;4.10;;
6679;SDS011;3376;42.664;23.346;2023-07-13T11:35:18;5.05;;;4.68;;
6679;SDS011;3376;42.664;23.346;2023-07-13T11:37:51;13.30;;;5.28;;
6679;SDS011;3376;42.664;23.346;2023-07-13T11:40:18;5.25;;;4.80;;
6679;SDS011;3376;42.664;23.346;2023-07-13T11:42:50;5.35;;;4.82;;
6679;SDS011;3376;42.664;23.346;2023-07-13T11:45:18;8.00;;;4.95;;
6679;SDS011;3376;42.664;23.346;2023-07-13T11:47:48;5.90;;;5.22;;
6679;SDS011;3376;42.664;23.346;2023-07-13T11:50:19;14.65;;;5.40;;
6679;SDS011;3376;42.664;23.346;2023-07-13T11:52:47;4.75;;;4.30;;
6679;SDS011;3376;42.664;23.346;2023-07-13T11:55:18;5.88;;;5.38;;
6679;SDS011;3376;42.664;23.346;2023-07-13T11:57:46;5.18;;;4.82;;
6679;SDS011;3376;42.664;23.346;2023-07-13T12:00:18;7.53;;;5.75;;
6679;SDS011;3376;42.664;23.346;2023-07-13T12:02:50;5.97;;;5.20;;
6679;SDS011;3376;42.664;23.346;2023-07-13T12:05:19;7.18;;;5.28;;
6679;SDS011;3376;42.664;23.346;2023-07-13T12:07:47;5.25;;;4.95;;
6679;SDS011;3376;42.664;23.346;2023-07-13T12:10:21;5.07;;;4.78;;
6679;SDS011;3376;42.664;23.346;2023-07-13T12:12:51;5.28;;;4.93;;
6679;SDS011;3376;42.664;23.346;2023-07-13T12:15:19;5.47;;;5.07;;
6679;SDS011;3376;42.664;23.346;2023-07-13T12:17:47;5.47;;;4.30;;
6679;SDS011;3376;42.664;23.346;2023-07-13T12:20:17;5.63;;;4.65;;
6679;SDS011;3376;42.664;23.346;2023-07-13T12:22:47;5.57;;;4.72;;
6679;SDS011;3376;42.664;23.346;2023-07-13T12:25:15;5.05;;;4.55;;
6679;SDS011;3376;42.664;23.346;2023-07-13T12:27:43;4.35;;;4.05;;
6679;SDS011;3376;42.664;23.346;2023-07-13T12:30:26;4.85;;;4.43;;
6679;SDS011;3376;42.664;23.346;2023-07-13T12:32:56;9.32;;;5.18;;
6679;SDS011;3376;42.664;23.346;2023-07-13T12:35:26;5.15;;;4.70;;
6679;SDS011;3376;42.664;23.346;2023-07-13T12:37:58;4.82;;;4.57;;
6679;SDS011;3376;42.664;23.346;2023-07-13T12:40:27;9.75;;;5.03;;
6679;SDS011;3376;42.664;23.346;2023-07-13T12:43:00;5.25;;;4.75;;
6679;SDS011;3376;42.664;23.346;2023-07-13T12:45:29;8.25;;;4.78;;
6679;SDS011;3376;42.664;23.346;2023-07-13T12:48:04;5.55;;;5.07;;
6679;SDS011;3376;42.664;23.346;2023-07-13T12:50:40;8.38;;;5.15;;
6679;SDS011;3376;42.664;23.346;2023-07-13T12:53:11;5.90;;;5.43;;
6679;SDS011;3376;42.664;23.346;2023-07-13T12:55:41;10.88;;;5.78;;
6679;SDS011;3376;42.664;23.346;2023-07-13T12:58:16;13.38;;;6.97;;
6679;SDS011;3376;42.664;23.346;2023-07-13T13:00:48;7.30;;;6.63;;
6679;SDS011;3376;42.664;23.346;2023-07-13T13:03:21;8.18;;;7.05;;
6679;SDS011;3376;42.664;23.346;2023-07-13T13:05:56;8.68;;;7.50;;
6679;SDS011;3376;42.664;23.346;2023-07-13T13:08:25;6.68;;;5.63;;
6679;SDS011;3376;42.664;23.346;2023-07-13T13:10:52;9.75;;;6.43;;
6679;SDS011;3376;42.664;23.346;2023-07-13T13:13:20;6.65;;;6.05;;
6679;SDS011;3376;42.664;23.346;2023-07-13T13:15:47;12.68;;;6.30;;
6679;SDS011;3376;42.664;23.346;2023-07-13T13:18:15;9.82;;;6.32;;
6679;SDS011;3376;42.664;23.346;2023-07-13T13:20:43;10.18;;;6.68;;
6679;SDS011;3376;42.664;23.346;2023-07-13T13:23:11;7.25;;;6.75;;
6679;SDS011;3376;42.664;23.346;2023-07-13T13:25:40;7.45;;;6.78;;
6679;SDS011;3376;42.664;23.346;2023-07-13T13:28:09;9.50;;;6.18;;
6679;SDS011;3376;42.664;23.346;2023-07-13T13:30:41;6.85;;;6.30;;
6679;SDS011;3376;42.664;23.346;2023-07-13T13:33:09;6.93;;;6.07;;
6679;SDS011;3376;42.664;23.346;2023-07-13T13:35:37;6.65;;;6.10;;
6679;SDS011;3376;42.664;23.346;2023-07-13T13:38:08;7.22;;;6.20;;
6679;SDS011;3376;42.664;23.346;2023-07-13T13:40:36;6.90;;;6.47;;
6679;SDS011;3376;42.664;23.346;2023-07-13T13:43:07;11.65;;;5.82;;
6679;SDS011;3376;42.664;23.346;2023-07-13T13:45:42;7.00;;;6.38;;
6679;SDS011;3376;42.664;23.346;2023-07-13T13:48:13;8.50;;;6.63;;
6679;SDS011;3376;42.664;23.346;2023-07-13T13:50:42;9.02;;;6.03;;
6679;SDS011;3376;42.664;23.346;2023-07-13T13:53:09;7.05;;;6.57;;
6679;SDS011;3376;42.664;23.346;2023-07-13T13:55:38;6.55;;;5.95;;
6679;SDS011;3376;42.664;23.346;2023-07-13T13:58:07;8.93;;;6.43;;
6679;SDS011;3376;42.664;23.346;2023-07-13T14:00:34;6.07;;;5.53;;
6679;SDS011;3376;42.664;23.346;2023-07-13T14:03:03;9.38;;;6.18;;
6679;SDS011;3376;42.664;23.346;2023-07-13T14:05:32;8.48;;;6.38;;
6679;SDS011;3376;42.664;23.346;2023-07-13T14:07:58;8.15;;;5.35;;
6679;SDS011;3376;42.664;23.346;2023-07-13T14:10:25;6.88;;;5.72;;
6679;SDS011;3376;42.664;23.346;2023-07-13T14:12:53;11.13;;;6.32;;
6679;SDS011;3376;42.664;23.346;2023-07-13T14:15:23;8.18;;;5.43;;
6679;SDS011;3376;42.664;23.346;2023-07-13T14:17:51;7.00;;;5.72;;
6679;SDS011;3376;42.664;23.346;2023-07-13T14:20:21;7.07;;;6.18;;
6679;SDS011;3376;42.664;23.346;2023-07-13T14:22:49;6.72;;;5.72;;
6679;SDS011;3376;42.664;23.346;2023-07-13T14:25:16;5.40;;;4.95;;
6679;SDS011;3376;42.664;23.346;2023-07-13T14:27:45;11.70;;;5.45;;
6679;SDS011;3376;42.664;23.346;2023-07-13T14:30:14;6.93;;;5.20;;
6679;SDS011;3376;42.664;23.346;2023-07-13T14:32:42;7.82;;;5.07;;
6679;SDS011;3376;42.664;23.346;2023-07-13T14:35:10;6.28;;;5.50;;
6679;SDS011;3376;42.664;23.346;2023-07-13T14:37:39;5.18;;;4.35;;
6679;SDS011;3376;42.664;23.346;2023-07-13T14:40:12;6.90;;;5.82;;
6679;SDS011;3376;42.664;23.346;2023-07-13T14:42:40;13.20;;;5.13;;
6679;SDS011;3376;42.664;23.346;2023-07-13T14:45:12;7.60;;;4.93;;
6679;SDS011;3376;42.664;23.346;2023-07-13T14:47:40;5.78;;;4.63;;
6679;SDS011;3376;42.664;23.346;2023-07-13T14:50:11;7.68;;;5.30;;
6679;SDS011;3376;42.664;23.346;2023-07-13T14:52:42;11.35;;;4.85;;
6679;SDS011;3376;42.664;23.346;2023-07-13T14:55:13;5.22;;;4.82;;
6679;SDS011;3376;42.664;23.346;2023-07-13T14:57:41;8.23;;;5.22;;
6679;SDS011;3376;42.664;23.346;2023-07-13T15:00:15;5.40;;;5.00;;
6679;SDS011;3376;42.664;23.346;2023-07-13T15:02:43;11.15;;;5.45;;
6679;SDS011;3376;42.664;23.346;2023-07-13T15:05:13;7.20;;;5.22;;
6679;SDS011;3376;42.664;23.346;2023-07-13T15:07:43;5.68;;;4.55;;
6679;SDS011;3376;42.664;23.346;2023-07-13T15:10:13;9.25;;;5.80;;